createdAt,value
2019-05-10T00:00:57.546Z,11.90
2019-05-10T00:03:44.121Z,11.90
2019-05-10T00:06:31.276Z,11.80
2019-05-10T00:08:59.312Z,11.80
2019-05-10T00:11:49.267Z,11.80
2019-05-10T00:14:19.819Z,11.80
2019-05-10T00:16:49.520Z,11.90
2019-05-10T00:19:18.257Z,11.90
2019-05-10T00:21:46.991Z,11.90
2019-05-10T00:24:15.781Z,11.90
2019-05-10T00:26:44.654Z,12.00
2019-05-10T00:29:13.383Z,12.10
2019-05-10T00:31:42.117Z,12.20
2019-05-10T00:34:10.827Z,12.20
2019-05-10T00:36:39.563Z,12.30
2019-05-10T00:39:08.463Z,12.40
2019-05-10T00:41:37.192Z,12.40
2019-05-10T00:44:05.924Z,12.50
2019-05-10T00:46:34.657Z,12.50
2019-05-10T00:49:03.380Z,12.50
2019-05-10T00:51:32.100Z,12.50
2019-05-10T00:54:00.873Z,12.50
2019-05-10T00:56:29.595Z,12.50
2019-05-10T00:58:58.307Z,12.60
2019-05-10T01:01:27.041Z,12.60
2019-05-10T01:03:55.764Z,12.50
2019-05-10T01:06:24.564Z,12.50
2019-05-10T01:08:53.272Z,12.50
2019-05-10T01:11:21.958Z,12.60
2019-05-10T01:13:50.679Z,12.60
2019-05-10T01:16:19.400Z,12.50
2019-05-10T01:18:48.135Z,12.60
2019-05-10T01:21:16.951Z,12.60
2019-05-10T01:23:45.685Z,12.70
2019-05-10T01:26:14.398Z,12.60
2019-05-10T01:28:43.128Z,12.70
2019-05-10T01:31:11.847Z,12.60
2019-05-10T01:33:40.594Z,12.70
2019-05-10T01:36:09.329Z,12.70
2019-05-10T01:38:38.057Z,12.50
2019-05-10T01:41:06.857Z,12.50
2019-05-10T01:43:35.623Z,12.60
2019-05-10T01:46:04.371Z,12.50
2019-05-10T01:48:33.114Z,12.50
2019-05-10T01:51:02.156Z,12.50
2019-05-10T01:53:31.050Z,12.50
2019-05-10T01:55:59.698Z,12.50
2019-05-10T01:58:28.436Z,12.50
2019-05-10T02:00:57.157Z,12.60
2019-05-10T02:03:25.885Z,12.50
2019-05-10T02:05:54.623Z,12.60
2019-05-10T02:08:23.356Z,12.60
2019-05-10T02:10:52.105Z,12.60
2019-05-10T02:13:20.835Z,12.60
2019-05-10T02:15:49.577Z,12.50
2019-05-10T02:18:18.293Z,12.50
2019-05-10T02:20:47.019Z,12.50
2019-05-10T02:23:15.734Z,12.50
2019-05-10T02:25:44.464Z,12.40
2019-05-10T02:28:13.183Z,12.40
2019-05-10T02:30:41.924Z,12.30
2019-05-10T02:33:10.649Z,12.30
2019-05-10T02:35:39.432Z,12.30
2019-05-10T02:38:08.157Z,12.30
2019-05-10T02:40:36.879Z,12.30
2019-05-10T02:43:05.599Z,12.30
2019-05-10T02:45:34.331Z,12.20
2019-05-10T02:48:03.077Z,12.30
2019-05-10T02:50:31.800Z,12.30
2019-05-10T02:53:00.620Z,12.20
2019-05-10T02:55:29.443Z,12.30
2019-05-10T02:57:58.863Z,12.30
2019-05-10T03:00:27.852Z,12.30
2019-05-10T03:02:57.886Z,12.40
2019-05-10T03:05:29.475Z,12.40
2019-05-10T03:07:59.015Z,12.40
2019-05-10T03:10:30.693Z,12.40
2019-05-10T03:13:01.610Z,12.30
2019-05-10T03:15:35.612Z,12.40
2019-05-10T03:18:03.483Z,12.40
2019-05-10T03:20:34.964Z,12.40
2019-05-10T03:23:04.700Z,12.30
2019-05-10T03:25:33.435Z,12.40
2019-05-10T03:28:02.181Z,12.40
2019-05-10T03:30:30.917Z,12.30
2019-05-10T03:32:59.620Z,12.30
2019-05-10T03:35:28.452Z,12.40
2019-05-10T03:37:57.167Z,12.40
2019-05-10T03:40:25.904Z,12.40
2019-05-10T03:42:54.628Z,12.40
2019-05-10T03:45:23.379Z,12.40
2019-05-10T03:47:52.108Z,12.50
2019-05-10T03:50:20.830Z,12.50
2019-05-10T03:52:52.340Z,12.40
2019-05-10T03:55:19.964Z,12.40
2019-05-10T03:57:48.699Z,12.50
2019-05-10T04:00:17.445Z,12.50
2019-05-10T04:02:46.189Z,12.60
2019-05-10T04:05:15.012Z,12.70
2019-05-10T04:07:43.745Z,12.70
2019-05-10T04:10:13.842Z,12.70
2019-05-10T04:12:42.580Z,12.90
2019-05-10T04:15:11.829Z,12.80
2019-05-10T04:17:40.693Z,12.80
2019-05-10T04:20:09.993Z,12.70
2019-05-10T04:22:38.730Z,12.70
2019-05-10T04:25:07.784Z,12.80
2019-05-10T04:27:36.571Z,12.80
2019-05-10T04:30:09.858Z,12.80
2019-05-10T04:32:38.618Z,12.80
2019-05-10T04:35:07.528Z,12.90
2019-05-10T04:37:36.272Z,13.00
2019-05-10T04:40:06.826Z,13.10
2019-05-10T04:42:35.542Z,13.00
2019-05-10T04:45:05.559Z,13.00
2019-05-10T04:47:34.324Z,13.00
2019-05-10T04:50:03.226Z,13.10
2019-05-10T04:52:31.997Z,13.00
2019-05-10T04:55:00.827Z,13.00
2019-05-10T04:57:29.588Z,12.90
2019-05-10T04:59:58.331Z,12.90
2019-05-10T05:02:27.155Z,12.90
2019-05-10T05:04:55.924Z,12.90
2019-05-10T05:07:24.710Z,13.00
2019-05-10T05:09:53.489Z,13.00
2019-05-10T05:12:22.200Z,13.00
2019-05-10T05:14:51.668Z,13.00
2019-05-10T05:17:20.392Z,13.00
2019-05-10T05:19:49.445Z,13.20
2019-05-10T05:22:18.241Z,13.10
2019-05-10T05:24:47.022Z,13.10
2019-05-10T05:27:15.844Z,13.10
2019-05-10T05:29:44.709Z,13.20
2019-05-10T05:32:19.511Z,13.20
2019-05-10T05:34:48.520Z,13.30
2019-05-10T05:37:17.403Z,13.40
2019-05-10T05:39:46.603Z,13.40
2019-05-10T05:42:15.943Z,13.50
2019-05-10T05:44:45.417Z,13.50
2019-05-10T05:47:14.144Z,13.60
2019-05-10T05:49:43.052Z,13.80
2019-05-10T05:52:11.892Z,13.90
2019-05-10T05:54:40.607Z,13.90
2019-05-10T05:57:09.346Z,14.00
2019-05-10T05:59:38.147Z,14.20
2019-05-10T06:02:09.149Z,14.20
2019-05-10T06:04:40.873Z,13.90
2019-05-10T06:07:07.672Z,13.70
2019-05-10T06:09:37.991Z,13.80
2019-05-10T06:12:07.599Z,13.90
2019-05-10T06:14:47.344Z,13.90
2019-05-10T06:17:08.336Z,14.00
2019-05-10T06:19:37.109Z,14.00
2019-05-10T06:22:06.933Z,13.90
2019-05-10T06:24:36.205Z,13.90
2019-05-10T06:27:05.215Z,13.90
2019-05-10T06:29:34.879Z,13.90
2019-05-10T06:32:03.910Z,14.00
2019-05-10T06:34:38.510Z,14.00
2019-05-10T06:37:04.983Z,14.00
2019-05-10T06:39:33.777Z,14.10
2019-05-10T06:42:02.611Z,14.10
2019-05-10T06:44:33.091Z,14.10
2019-05-10T06:47:07.587Z,14.10
2019-05-10T06:49:32.530Z,14.10
2019-05-10T06:52:01.275Z,14.00
2019-05-10T06:54:30.083Z,14.00
2019-05-10T06:56:58.869Z,14.20
2019-05-10T06:59:27.688Z,14.30
2019-05-10T07:01:56.500Z,14.30
2019-05-10T07:04:25.693Z,14.40
2019-05-10T07:06:54.456Z,14.50
2019-05-10T07:09:23.197Z,14.70
2019-05-10T07:11:51.961Z,14.70
2019-05-10T07:14:25.430Z,14.60
2019-05-10T07:16:56.520Z,14.50
2019-05-10T07:19:22.818Z,14.50
2019-05-10T07:21:57.458Z,14.40
2019-05-10T07:24:25.012Z,14.40
2019-05-10T07:26:59.971Z,14.40
2019-05-10T07:29:30.029Z,14.40
2019-05-10T07:31:56.081Z,14.40
2019-05-10T07:34:25.026Z,14.50
2019-05-10T07:36:53.763Z,14.30
2019-05-10T07:39:23.032Z,14.30
2019-05-10T07:41:51.769Z,14.40
2019-05-10T07:44:20.691Z,14.40
2019-05-10T07:46:53.877Z,14.40
2019-05-10T07:49:23.783Z,14.40
2019-05-10T07:51:50.822Z,14.60
2019-05-10T07:54:19.587Z,14.40
2019-05-10T07:56:48.363Z,14.40
2019-05-10T07:59:22.006Z,14.30
2019-05-10T08:01:49.624Z,14.60
2019-05-10T08:04:27.992Z,14.60
2019-05-10T08:06:51.976Z,14.50
2019-05-10T08:09:20.915Z,14.40
2019-05-10T08:11:54.228Z,14.40
2019-05-10T08:14:25.074Z,14.40
2019-05-10T08:16:58.590Z,14.50
2019-05-10T08:19:24.112Z,14.50
2019-05-10T08:21:56.476Z,14.50
2019-05-10T08:24:24.555Z,14.40
2019-05-10T08:27:06.877Z,14.40
2019-05-10T08:29:26.293Z,14.40
2019-05-10T08:31:56.024Z,14.40
2019-05-10T08:34:28.844Z,14.60
2019-05-10T08:36:55.419Z,14.70
2019-05-10T08:39:26.019Z,14.70
2019-05-10T08:42:04.981Z,14.60
2019-05-10T08:44:26.872Z,14.70
2019-05-10T08:46:55.717Z,14.70
2019-05-10T08:49:31.101Z,14.80
2019-05-10T08:51:55.218Z,14.80
2019-05-10T08:54:26.413Z,14.50
2019-05-10T08:57:01.070Z,14.40
2019-05-10T08:59:26.764Z,14.40
2019-05-10T09:01:55.392Z,14.30
2019-05-10T09:04:24.365Z,14.30
2019-05-10T09:07:02.680Z,14.30
2019-05-10T09:09:45.731Z,14.40
2019-05-10T09:12:09.010Z,14.40
2019-05-10T09:14:48.778Z,14.50
2019-05-10T09:17:23.707Z,14.50
2019-05-10T09:19:49.205Z,14.50
2019-05-10T09:22:18.056Z,14.40
2019-05-10T09:24:48.566Z,14.60
2019-05-10T09:27:18.552Z,14.80
2019-05-10T09:29:47.281Z,14.80
2019-05-10T09:32:21.432Z,14.90
2019-05-10T09:34:46.853Z,14.90
2019-05-10T09:37:17.627Z,14.80
2019-05-10T09:39:46.275Z,15.00
2019-05-10T09:42:25.165Z,14.70
2019-05-10T09:44:46.029Z,14.80
2019-05-10T09:47:14.949Z,14.80
2019-05-10T09:49:46.813Z,14.70
2019-05-10T09:52:18.282Z,14.70
2019-05-10T09:54:44.484Z,14.60
2019-05-10T09:57:13.275Z,14.50
2019-05-10T09:59:42.567Z,14.50
2019-05-10T10:02:15.943Z,14.50
2019-05-10T10:04:41.714Z,14.60
2019-05-10T10:07:10.496Z,14.70
2019-05-10T10:09:44.472Z,14.60
2019-05-10T10:12:09.832Z,14.60
2019-05-10T10:14:43.002Z,14.70
2019-05-10T10:17:11.552Z,14.70
2019-05-10T10:19:40.730Z,14.60
2019-05-10T10:22:11.134Z,14.60
2019-05-10T10:24:41.069Z,14.50
2019-05-10T10:27:09.977Z,14.40
2019-05-10T10:29:38.890Z,14.50
2019-05-10T10:32:08.064Z,14.50
2019-05-10T10:34:38.770Z,14.70
2019-05-10T10:37:07.854Z,14.70
2019-05-10T10:39:37.253Z,14.70
2019-05-10T10:42:08.888Z,14.90
2019-05-10T10:44:37.159Z,15.00
2019-05-10T10:47:08.011Z,15.10
2019-05-10T10:49:37.773Z,15.40
2019-05-10T10:52:11.210Z,15.70
2019-05-10T10:54:39.808Z,15.70
2019-05-10T10:57:07.994Z,15.90
2019-05-10T10:59:37.418Z,15.60
2019-05-10T11:02:29.068Z,15.70
2019-05-10T11:04:40.374Z,15.50
2019-05-10T11:07:11.102Z,15.90
2019-05-10T11:09:41.005Z,15.80
2019-05-10T11:12:09.467Z,15.90
2019-05-10T11:14:40.265Z,16.10
2019-05-10T11:17:08.586Z,16.20
2019-05-10T11:19:37.397Z,16.50
2019-05-10T11:22:09.656Z,16.90
2019-05-10T11:24:36.595Z,16.80
2019-05-10T11:27:07.240Z,16.70
2019-05-10T11:29:35.735Z,16.50
2019-05-10T11:32:15.146Z,16.70
2019-05-10T11:34:37.432Z,16.60
2019-05-10T11:37:05.328Z,16.70
2019-05-10T11:39:45.149Z,16.50
2019-05-10T11:42:07.253Z,16.40
2019-05-10T11:44:34.886Z,16.30
2019-05-10T11:47:03.721Z,16.40
2019-05-10T11:49:32.462Z,16.40
2019-05-10T11:52:01.820Z,15.90
2019-05-10T11:54:31.890Z,15.70
2019-05-10T11:57:06.556Z,15.90
2019-05-10T11:59:33.738Z,15.70
2019-05-10T12:02:02.861Z,15.60
2019-05-10T12:07:06.095Z,15.80
2019-05-10T12:09:33.075Z,16.10
2019-05-10T12:12:03.460Z,16.20
2019-05-10T12:14:32.258Z,16.30
2019-05-10T12:17:02.276Z,16.20
2019-05-10T12:19:36.695Z,16.30
2019-05-10T12:22:04.561Z,16.30
2019-05-10T12:24:46.675Z,16.30
2019-05-10T12:26:19.459Z,15.70
2019-05-10T12:27:25.825Z,16.40
2019-05-10T12:29:32.924Z,16.20
2019-05-10T12:32:01.655Z,16.30
2019-05-10T12:34:31.123Z,16.20
2019-05-10T12:37:03.933Z,16.10
2019-05-10T12:39:31.045Z,16.10
2019-05-10T12:41:59.867Z,16.10
2019-05-10T12:44:28.590Z,16.00
2019-05-10T12:46:57.324Z,16.10
2019-05-10T12:49:26.047Z,15.90
2019-05-10T12:51:54.848Z,15.90
2019-05-10T12:54:25.238Z,16.00
2019-05-10T12:56:54.003Z,16.10
2019-05-10T12:59:22.742Z,16.10
2019-05-10T13:01:51.520Z,16.10
2019-05-10T13:04:23.202Z,16.30
2019-05-10T13:06:50.678Z,16.40
2019-05-10T13:09:34.656Z,16.40
2019-05-10T13:11:49.940Z,16.50
2019-05-10T13:14:18.692Z,16.60
2019-05-10T13:16:47.478Z,16.60
2019-05-10T13:19:20.015Z,16.60
2019-05-10T13:21:47.119Z,17.00
2019-05-10T13:24:15.908Z,17.20
2019-05-10T13:26:44.671Z,17.70
2019-05-10T13:29:13.575Z,18.10
2019-05-10T13:31:44.294Z,18.20
2019-05-10T13:34:12.744Z,18.20
2019-05-10T13:36:41.471Z,17.80
2019-05-10T13:39:10.268Z,17.50
2019-05-10T13:41:39.019Z,17.50
2019-05-10T13:44:07.837Z,17.40
2019-05-10T13:46:36.548Z,17.40
2019-05-10T13:49:05.263Z,17.30
2019-05-10T13:51:33.986Z,17.10
2019-05-10T13:54:05.148Z,17.30
2019-05-10T13:56:33.197Z,17.30
2019-05-10T13:59:13.556Z,17.10
2019-05-10T14:01:33.282Z,17.20
2019-05-10T14:04:03.738Z,17.30
2019-05-10T14:06:34.274Z,17.50
2019-05-10T14:09:05.452Z,17.40
2019-05-10T14:11:40.201Z,17.30
2019-05-10T14:14:06.176Z,17.40
2019-05-10T14:16:35.136Z,17.30
2019-05-10T14:19:04.655Z,17.00
2019-05-10T14:21:34.453Z,16.50
2019-05-10T14:24:03.536Z,16.40
2019-05-10T14:26:33.275Z,16.50
2019-05-10T14:29:02.068Z,16.50
2019-05-10T14:31:30.876Z,16.50
2019-05-10T14:34:14.775Z,16.40
2019-05-10T14:36:34.124Z,16.30
2019-05-10T14:39:00.356Z,16.40
2019-05-10T14:41:29.151Z,16.30
2019-05-10T14:43:57.872Z,16.30
2019-05-10T14:46:26.650Z,16.40
2019-05-10T14:48:55.560Z,16.30
2019-05-10T14:51:37.873Z,16.40
2019-05-10T14:53:58.462Z,16.40
2019-05-10T14:56:25.119Z,16.50
2019-05-10T14:58:53.857Z,16.60
2019-05-10T15:01:22.663Z,16.60
2019-05-10T15:03:51.433Z,16.70
2019-05-10T15:06:20.116Z,16.90
2019-05-10T15:08:48.880Z,16.90
2019-05-10T15:11:17.595Z,17.00
2019-05-10T15:13:46.348Z,17.10
2019-05-10T15:16:25.775Z,17.20
2019-05-10T15:18:45.549Z,17.20
2019-05-10T15:21:14.378Z,17.30
2019-05-10T15:23:43.214Z,17.40
2019-05-10T15:26:12.364Z,17.30
2019-05-10T15:28:42.613Z,17.10
2019-05-10T15:31:11.604Z,17.00
2019-05-10T15:33:40.324Z,16.90
2019-05-10T15:36:09.114Z,16.80
2019-05-10T15:38:40.506Z,16.80
2019-05-10T15:41:08.220Z,16.70
2019-05-10T15:43:36.927Z,16.60
2019-05-10T15:46:05.690Z,16.50
2019-05-10T15:48:36.585Z,16.40
2019-05-10T15:51:04.849Z,16.40
2019-05-10T15:53:33.594Z,16.30
2019-05-10T15:56:03.911Z,16.20
2019-05-10T15:58:36.605Z,16.10
2019-05-10T16:01:03.077Z,16.00
2019-05-10T16:03:31.846Z,16.10
2019-05-10T16:06:01.223Z,16.10
2019-05-10T16:08:30.877Z,16.10
2019-05-10T16:11:00.675Z,16.10
2019-05-10T16:13:29.428Z,16.10
2019-05-10T16:15:59.538Z,16.10
2019-05-10T16:18:33.455Z,16.00
2019-05-10T16:20:58.858Z,16.00
2019-05-10T16:23:29.740Z,15.90
2019-05-10T16:25:58.547Z,15.90
2019-05-10T16:28:28.759Z,15.90
2019-05-10T16:30:58.324Z,15.90
2019-05-10T16:33:27.191Z,15.90
2019-05-10T16:35:55.973Z,15.90
2019-05-10T16:38:24.686Z,15.90
2019-05-10T16:40:58.574Z,15.90
2019-05-10T16:43:24.816Z,16.00
2019-05-10T16:45:53.683Z,16.00
2019-05-10T16:48:22.456Z,16.00
2019-05-10T16:50:51.256Z,15.90
2019-05-10T16:53:20.043Z,15.90
2019-05-10T16:55:48.796Z,16.00
2019-05-10T16:58:18.022Z,16.00
2019-05-10T17:00:48.051Z,15.90
2019-05-10T17:03:18.219Z,15.90
2019-05-10T17:05:53.560Z,15.90
2019-05-10T17:08:17.768Z,15.90
2019-05-10T17:10:46.518Z,15.90
2019-05-10T17:13:15.245Z,15.90
2019-05-10T17:15:43.973Z,15.90
2019-05-10T17:18:17.675Z,15.80
2019-05-10T17:20:45.483Z,15.80
2019-05-10T17:23:13.816Z,15.80
2019-05-10T17:25:42.530Z,15.70
2019-05-10T17:28:11.265Z,15.70
2019-05-10T17:30:39.994Z,15.70
2019-05-10T17:33:10.804Z,15.70
2019-05-10T17:35:42.011Z,15.70
2019-05-10T17:38:14.071Z,15.70
2019-05-10T17:40:42.380Z,15.70
2019-05-10T17:43:14.531Z,15.60
2019-05-10T17:45:42.466Z,15.60
2019-05-10T17:48:11.397Z,15.60
2019-05-10T17:50:40.135Z,15.60
2019-05-10T17:53:08.868Z,15.50
2019-05-10T17:55:37.587Z,15.50
2019-05-10T17:58:06.321Z,15.50
2019-05-10T18:00:35.108Z,15.50
2019-05-10T18:03:03.906Z,15.40
2019-05-10T18:05:32.631Z,15.40
2019-05-10T18:08:01.418Z,15.30
2019-05-10T18:10:30.094Z,15.20
2019-05-10T18:13:03.354Z,15.10
2019-05-10T18:15:32.985Z,15.00
2019-05-10T18:18:02.758Z,14.90
2019-05-10T18:20:40.794Z,14.80
2019-05-10T18:23:00.433Z,14.80
2019-05-10T18:25:29.202Z,14.80
2019-05-10T18:27:57.941Z,14.70
2019-05-10T18:30:26.678Z,14.60
2019-05-10T18:32:55.484Z,14.60
2019-05-10T18:35:24.204Z,14.50
2019-05-10T18:37:53.596Z,14.40
2019-05-10T18:40:25.141Z,14.40
2019-05-10T18:42:57.897Z,14.40
2019-05-10T18:45:28.609Z,14.40
2019-05-10T18:47:54.623Z,14.30
2019-05-10T18:50:23.358Z,14.30
2019-05-10T18:52:52.087Z,14.30
2019-05-10T18:55:20.837Z,14.40
2019-05-10T18:57:50.823Z,14.40
2019-05-10T19:00:22.989Z,14.40
2019-05-10T19:02:55.183Z,14.40
2019-05-10T19:05:25.207Z,14.40
2019-05-10T19:08:03.209Z,14.40
2019-05-10T19:10:22.375Z,14.40
2019-05-10T19:13:00.114Z,14.40
2019-05-10T19:15:21.507Z,14.30
2019-05-10T19:17:50.254Z,14.30
2019-05-10T19:20:19.012Z,14.20
2019-05-10T19:22:47.771Z,14.10
2019-05-10T19:25:16.468Z,14.10
2019-05-10T19:27:50.520Z,14.00
2019-05-10T19:30:20.182Z,14.00
2019-05-10T19:32:51.291Z,13.90
2019-05-10T19:35:16.553Z,13.80
2019-05-10T19:37:45.270Z,13.80
2019-05-10T19:40:14.110Z,13.80
2019-05-10T19:42:44.815Z,13.80
2019-05-10T19:45:19.224Z,13.70
2019-05-10T19:47:44.029Z,13.70
2019-05-10T19:50:12.957Z,13.70
2019-05-10T19:52:41.695Z,13.70
2019-05-10T19:55:13.199Z,13.60
2019-05-10T19:57:41.023Z,13.60
2019-05-10T20:00:10.731Z,13.50
2019-05-10T20:02:40.046Z,13.50
2019-05-10T20:05:08.976Z,13.40
2019-05-10T20:07:45.953Z,13.30
2019-05-10T20:10:08.445Z,13.20
2019-05-10T20:12:37.244Z,13.20
2019-05-10T20:15:07.427Z,13.10
2019-05-10T20:17:36.528Z,13.10
2019-05-10T20:20:09.403Z,13.10
2019-05-10T20:22:38.156Z,13.10
2019-05-10T20:25:08.588Z,13.00
2019-05-10T20:27:37.318Z,13.00
2019-05-10T20:30:07.292Z,13.00
2019-05-10T20:32:36.115Z,12.90
2019-05-10T20:35:07.493Z,12.80
2019-05-10T20:37:36.765Z,12.80
2019-05-10T20:40:06.983Z,12.70
2019-05-10T20:42:36.393Z,12.70
2019-05-10T20:45:08.043Z,12.70
2019-05-10T20:47:36.179Z,12.70
2019-05-10T20:50:05.319Z,12.60
2019-05-10T20:52:34.848Z,12.50
2019-05-10T20:55:03.937Z,12.40
2019-05-10T20:57:32.891Z,12.40
2019-05-10T21:00:02.853Z,12.40
2019-05-10T21:02:31.715Z,12.30
2019-05-10T21:05:01.323Z,12.20
2019-05-10T21:07:30.588Z,12.00
2019-05-10T21:09:59.359Z,11.90
2019-05-10T21:12:28.109Z,11.80
2019-05-10T21:14:56.831Z,11.80
2019-05-10T21:17:25.551Z,11.70
2019-05-10T21:19:54.297Z,11.70
2019-05-10T21:22:23.024Z,11.60
2019-05-10T21:24:51.760Z,11.50
2019-05-10T21:27:20.492Z,11.50
2019-05-10T21:29:49.239Z,11.50
2019-05-10T21:32:17.980Z,11.50
2019-05-10T21:34:46.748Z,11.50
2019-05-10T21:37:15.488Z,11.50
2019-05-10T21:39:44.219Z,11.50
2019-05-10T21:42:12.945Z,11.50
2019-05-10T21:44:41.661Z,11.50
2019-05-10T21:47:10.392Z,11.40
2019-05-10T21:49:39.122Z,11.30
2019-05-10T21:52:07.857Z,11.20
2019-05-10T21:54:36.586Z,11.10
2019-05-10T21:57:05.327Z,11.10
2019-05-10T21:59:34.054Z,11.10
2019-05-10T22:02:03.064Z,11.10
2019-05-10T22:04:31.868Z,11.20
2019-05-10T22:07:00.611Z,11.20
2019-05-10T22:09:29.388Z,11.20
2019-05-10T22:11:59.628Z,11.30
2019-05-10T22:14:28.511Z,11.30
2019-05-10T22:16:57.256Z,11.40
2019-05-10T22:19:26.005Z,11.30
2019-05-10T22:21:55.441Z,11.30
2019-05-10T22:24:24.374Z,11.30
2019-05-10T22:26:53.117Z,11.30
2019-05-10T22:29:21.824Z,11.40
2019-05-10T22:31:50.571Z,11.40
2019-05-10T22:34:19.302Z,11.50
2019-05-10T22:36:48.033Z,11.50
2019-05-10T22:39:16.769Z,11.60
2019-05-10T22:41:45.550Z,11.60
2019-05-10T22:44:14.247Z,11.70
2019-05-10T22:46:43.018Z,11.70
2019-05-10T22:49:11.763Z,11.70
2019-05-10T22:51:40.520Z,11.70
2019-05-10T22:54:09.239Z,11.80
2019-05-10T22:56:37.980Z,11.80
2019-05-10T22:59:06.730Z,11.80
2019-05-10T23:01:54.745Z,11.90
2019-05-10T23:04:23.486Z,12.00
2019-05-10T23:06:52.240Z,12.00
2019-05-10T23:09:24.747Z,12.00
2019-05-10T23:11:51.699Z,12.10
2019-05-10T23:14:20.438Z,12.10
2019-05-10T23:16:49.223Z,12.20
2019-05-10T23:19:17.912Z,12.30
2019-05-10T23:21:46.707Z,12.30
2019-05-10T23:24:17.038Z,12.30
2019-05-10T23:26:46.075Z,12.20
2019-05-10T23:29:14.921Z,12.20
2019-05-10T23:31:43.645Z,12.20
2019-05-10T23:34:12.386Z,12.10
2019-05-10T23:36:41.137Z,12.00
2019-05-10T23:39:09.869Z,12.00
2019-05-10T23:41:38.602Z,12.10
2019-05-10T23:44:07.369Z,12.10
2019-05-10T23:46:36.099Z,12.10
2019-05-10T23:49:04.835Z,12.00
2019-05-10T23:51:33.582Z,12.00
2019-05-10T23:54:02.353Z,12.00
2019-05-10T23:56:31.111Z,12.00
2019-05-10T23:58:59.857Z,12.00
